createdAt,value
2018-11-28T00:01:38.638Z,11.17
2018-11-28T00:21:27.970Z,11.10
2018-11-28T00:23:56.378Z,11.13
2018-11-28T00:26:24.747Z,11.03
2018-11-28T00:28:53.249Z,10.80
2018-11-28T00:48:42.393Z,11.07
2018-11-28T00:51:10.771Z,11.17
2018-11-28T00:53:39.258Z,10.10
2018-11-28T01:13:29.106Z,12.10
2018-11-28T01:15:57.506Z,12.13
2018-11-28T01:18:25.883Z,11.53
2018-11-28T01:20:54.279Z,11.17
2018-11-28T01:23:22.665Z,11.03
2018-11-28T01:25:51.090Z,10.67
2018-11-28T01:45:41.083Z,11.43
2018-11-28T02:05:30.597Z,11.73
2018-11-28T02:07:59.310Z,11.57
2018-11-28T02:10:27.682Z,11.07
2018-11-28T02:30:17.037Z,11.83
2018-11-28T02:50:06.602Z,10.33
2018-11-28T03:09:56.564Z,10.00
2018-11-28T03:29:46.283Z,11.77
2018-11-28T03:49:35.463Z,11.53
2018-11-28T04:09:25.367Z,11.87
2018-11-28T04:11:53.845Z,12.20
2018-11-28T04:14:22.261Z,12.93
2018-11-28T04:34:12.218Z,12.40
2018-11-28T04:36:40.638Z,10.77
2018-11-28T04:39:09.041Z,11.47
2018-11-28T04:58:58.110Z,8.90
2018-11-28T05:18:47.360Z,9.43
2018-11-28T05:21:15.755Z,8.77
2018-11-28T05:41:05.174Z,8.00
2018-11-28T06:00:55.602Z,9.13
2018-11-28T06:20:44.850Z,10.07
2018-11-28T06:40:34.489Z,11.30
2018-11-28T06:43:02.910Z,10.43
2018-11-28T06:45:31.302Z,11.07
2018-11-28T06:47:59.735Z,11.23
2018-11-28T06:50:28.170Z,10.27
2018-11-28T06:52:56.574Z,11.07
2018-11-28T06:55:24.988Z,11.20
2018-11-28T06:57:53.368Z,10.27
2018-11-28T07:00:22.922Z,11.13
2018-11-28T07:02:52.434Z,12.93
2018-11-28T07:05:21.549Z,12.80
2018-11-28T07:07:50.269Z,10.73
2018-11-28T07:10:19.677Z,11.93
2018-11-28T07:12:48.082Z,11.00
2018-11-28T07:15:22.180Z,10.93
2018-11-28T07:17:50.554Z,10.00
2018-11-28T07:37:40.113Z,9.83
2018-11-28T07:40:16.449Z,10.83
2018-11-28T08:00:16.139Z,11.43
2018-11-28T08:02:44.937Z,10.97
2018-11-28T08:05:13.364Z,10.60
2018-11-28T08:07:41.871Z,11.90
2018-11-28T08:27:31.217Z,14.53
2018-11-28T08:29:59.642Z,15.00
2018-11-28T08:32:28.036Z,13.03
2018-11-28T08:34:56.430Z,12.93
2018-11-28T08:37:24.847Z,12.90
2018-11-28T08:39:54.013Z,12.90
2018-11-28T08:42:22.378Z,13.37
2018-11-28T08:44:50.998Z,14.67
2018-11-28T08:47:19.419Z,14.70
2018-11-28T08:49:47.797Z,14.47
2018-11-28T08:52:16.234Z,13.47
2018-11-28T08:54:44.666Z,14.67
2018-11-28T08:57:13.081Z,14.60
2018-11-28T08:59:41.503Z,14.57
2018-11-28T09:02:09.907Z,14.80
2018-11-28T09:04:38.301Z,14.83
2018-11-28T09:07:06.734Z,14.80
2018-11-28T09:09:35.110Z,13.97
2018-11-28T09:12:03.587Z,13.60
2018-11-28T09:14:32.110Z,14.00
2018-11-28T09:17:00.493Z,13.43
2018-11-28T09:19:28.890Z,13.90
2018-11-28T09:21:57.281Z,13.20
2018-11-28T09:24:25.675Z,13.80
2018-11-28T09:26:54.073Z,13.63
2018-11-28T09:29:22.609Z,14.87
2018-11-28T09:31:51.019Z,14.20
2018-11-28T09:34:19.378Z,13.87
2018-11-28T09:36:48.165Z,14.00
2018-11-28T09:39:16.536Z,13.93
2018-11-28T09:59:07.126Z,15.03
2018-11-28T10:01:35.514Z,14.10
2018-11-28T10:21:24.898Z,16.13
2018-11-28T10:23:53.314Z,15.97
2018-11-28T10:26:21.718Z,16.87
2018-11-28T10:28:50.154Z,16.20
2018-11-28T10:31:18.530Z,15.43
2018-11-28T10:33:46.922Z,16.17
2018-11-28T10:36:15.346Z,16.30
2018-11-28T10:38:43.739Z,15.63
2018-11-28T10:41:12.118Z,15.33
2018-11-28T10:43:40.534Z,14.87
2018-11-28T10:46:09.162Z,14.87
2018-11-28T10:48:37.584Z,15.40
2018-11-28T10:51:06.612Z,14.97
2018-11-28T10:53:35.028Z,16.40
2018-11-28T10:56:03.413Z,15.63
2018-11-28T10:58:32.180Z,16.10
2018-11-28T11:01:05.906Z,15.67
2018-11-28T11:20:56.529Z,16.40
2018-11-28T11:23:25.104Z,16.27
2018-11-28T11:25:53.880Z,16.40
2018-11-28T11:28:22.545Z,15.57
2018-11-28T11:30:51.083Z,16.53
2018-11-28T11:33:19.515Z,16.90
2018-11-28T11:35:54.589Z,16.23
2018-11-28T11:38:23.043Z,16.90
2018-11-28T11:40:51.534Z,16.57
2018-11-28T11:43:19.935Z,16.77
2018-11-28T11:45:48.382Z,16.47
2018-11-28T11:48:16.832Z,16.87
2018-11-28T12:08:07.820Z,15.83
2018-11-28T12:27:57.998Z,14.93
2018-11-28T12:30:26.450Z,15.37
2018-11-28T12:32:54.837Z,16.30
2018-11-28T12:35:23.239Z,16.17
2018-11-28T12:37:51.675Z,16.50
2018-11-28T12:40:20.076Z,16.57
2018-11-28T12:42:50.854Z,16.30
2018-11-28T12:45:20.537Z,15.67
2018-11-28T12:47:49.567Z,15.13
2018-11-28T12:50:27.158Z,15.60
2018-11-28T12:52:56.939Z,16.27
2018-11-28T12:55:25.350Z,15.60
2018-11-28T12:57:54.762Z,14.20
2018-11-28T13:17:44.502Z,15.00
2018-11-28T13:20:15.138Z,15.47
2018-11-28T13:22:43.991Z,14.57
2018-11-28T13:25:15.441Z,14.43
2018-11-28T13:27:44.366Z,14.73
2018-11-28T13:30:19.546Z,14.90
2018-11-28T13:50:16.701Z,12.97
2018-11-28T13:52:45.099Z,12.50
2018-11-28T14:12:34.743Z,12.93
2018-11-28T14:15:03.234Z,13.10
2018-11-28T14:17:31.657Z,13.10
2018-11-28T14:20:00.079Z,12.53
2018-11-28T14:22:28.859Z,13.00
2018-11-28T14:24:57.600Z,13.37
2018-11-28T14:27:27.832Z,13.67
2018-11-28T14:29:56.464Z,13.63
2018-11-28T14:32:24.856Z,13.53
2018-11-28T14:34:54.315Z,14.00
2018-11-28T14:37:22.747Z,13.40
2018-11-28T14:57:11.963Z,13.77
2018-11-28T14:59:40.677Z,13.90
2018-11-28T15:19:30.006Z,17.40
2018-11-28T15:21:58.384Z,17.77
2018-11-28T15:24:27.122Z,18.27
2018-11-28T15:26:55.913Z,16.40
2018-11-28T15:29:24.284Z,15.87
2018-11-28T15:31:52.953Z,15.77
2018-11-28T15:34:21.687Z,15.87
2018-11-28T15:54:12.168Z,15.93
2018-11-28T15:56:41.068Z,16.60
2018-11-28T16:16:30.651Z,18.07
2018-11-28T16:36:20.095Z,16.77
2018-11-28T16:38:48.470Z,16.43
2018-11-28T16:58:38.270Z,15.77
2018-11-28T17:01:06.780Z,16.47
2018-11-28T17:03:35.167Z,17.00
2018-11-28T17:06:03.624Z,17.87
2018-11-28T17:25:53.503Z,17.83
2018-11-28T17:45:42.350Z,19.90
2018-11-28T18:05:32.117Z,18.17
2018-11-28T18:25:22.795Z,16.90
2018-11-28T18:27:52.423Z,17.03
2018-11-28T18:47:41.894Z,16.83
2018-11-28T18:50:11.202Z,16.93
2018-11-28T18:52:39.683Z,17.07
2018-11-28T19:12:28.716Z,17.30
2018-11-28T19:14:57.102Z,17.70
2018-11-28T19:17:26.081Z,18.10
2018-11-28T19:19:54.935Z,17.80
2018-11-28T19:22:23.331Z,17.30
2018-11-28T19:42:12.912Z,17.90
2018-11-28T19:44:41.315Z,17.23
2018-11-28T19:47:09.724Z,16.03
2018-11-28T19:49:38.178Z,17.00
2018-11-28T19:52:06.593Z,18.33
2018-11-28T19:54:35.012Z,18.10
2018-11-28T19:57:03.445Z,17.10
2018-11-28T19:59:31.842Z,17.73
2018-11-28T20:02:00.217Z,16.13
2018-11-28T20:21:50.839Z,16.93
2018-11-28T20:24:19.218Z,16.70
2018-11-28T20:26:47.608Z,17.17
2018-11-28T20:29:16.402Z,17.37
2018-11-28T20:49:05.671Z,18.93
2018-11-28T20:51:34.411Z,18.87
2018-11-28T20:54:02.822Z,17.93
2018-11-28T21:13:52.005Z,17.97
2018-11-28T21:33:41.806Z,23.60
2018-11-28T21:53:31.454Z,17.27
2018-11-28T22:13:21.574Z,16.63
2018-11-28T22:15:49.974Z,17.60
2018-11-28T22:18:18.354Z,18.10
2018-11-28T22:38:08.089Z,19.57
2018-11-28T22:40:36.442Z,19.43
2018-11-28T23:00:31.710Z,19.70
2018-11-28T23:20:21.141Z,17.80
2018-11-28T23:22:49.689Z,17.53
2018-11-28T23:25:18.077Z,18.13
2018-11-28T23:27:46.637Z,18.27
2018-11-28T23:30:18.106Z,18.43
2018-11-28T23:32:47.382Z,19.53
2018-11-28T23:52:36.870Z,19.43
